Time;durP1;ratioP1;P1;durP2;ratioP2;P2;SDS_P1;SDS_P2;PMS_P1;PMS_P2;Temp;Humidity;BMP_temperature;BMP_pressure;BME280_temperature;BME280_humidity;BME280_pressure;Samples;Min_cycle;Max_cycle;Signal;HPM_P1;HPM_P2
2021/11/04 00:01:36;;;;;;;4.55;4.15;;;;;;;9.44;100.00;94783.31;5006276;28;20096;-58
2021/11/04 00:04:05;;;;;;;5.68;4.07;;;;;;;9.43;100.00;94778.22;4999338;28;20642;-53
2021/11/04 00:06:35;;;;;;;4.03;3.63;;;;;;;9.51;100.00;94767.63;5006000;28;20092;-53
2021/11/04 00:09:04;;;;;;;6.22;4.00;;;;;;;9.66;100.00;94763.16;4996252;28;20062;-55
2021/11/04 00:11:32;;;;;;;4.65;4.20;;;;;;;9.90;100.00;94759.44;5003376;28;20520;-54
2021/11/04 00:14:01;;;;;;;4.63;3.90;;;;;;;10.12;100.00;94741.13;5001548;28;20070;-55
2021/11/04 00:16:29;;;;;;;4.75;4.05;;;;;;;10.05;100.00;94741.03;5007260;28;20061;-54
2021/11/04 00:18:57;;;;;;;5.25;4.20;;;;;;;9.79;100.00;94749.38;5005697;28;20077;-49
2021/11/04 00:21:26;;;;;;;4.60;4.20;;;;;;;9.97;100.00;94741.13;4999697;28;20081;-56
2021/11/04 00:23:56;;;;;;;4.60;4.20;;;;;;;9.96;100.00;94742.13;4999990;28;20165;-59
2021/11/04 00:26:24;;;;;;;4.53;4.13;;;;;;;10.07;100.00;94738.19;4997943;28;20463;-50
2021/11/04 00:28:56;;;;;;;4.55;4.05;;;;;;;10.23;100.00;94738.00;5000374;28;20070;-55
2021/11/04 00:31:25;;;;;;;4.40;4.00;;;;;;;10.25;100.00;94733.34;5004357;28;20145;-54
2021/11/04 00:33:55;;;;;;;4.45;4.05;;;;;;;10.15;100.00;94733.66;5001061;28;20100;-56
2021/11/04 00:36:24;;;;;;;4.68;4.28;;;;;;;10.22;100.00;94741.66;4999047;28;20085;-56
2021/11/04 00:38:53;;;;;;;4.43;4.03;;;;;;;10.41;100.00;94745.53;5004199;28;20181;-52
2021/11/04 00:41:22;;;;;;;4.95;4.45;;;;;;;10.43;100.00;94743.53;5007004;28;20090;-49
2021/11/04 00:43:51;;;;;;;4.95;4.45;;;;;;;10.10;100.00;94743.09;4991980;28;20062;-53
2021/11/04 00:46:19;;;;;;;6.22;4.70;;;;;;;10.06;100.00;94747.13;4984014;28;20070;-52
2021/11/04 00:48:48;;;;;;;6.60;4.35;;;;;;;10.10;100.00;94738.66;4984242;28;20092;-54
2021/11/04 00:51:16;;;;;;;4.72;4.32;;;;;;;10.25;100.00;94733.34;5004747;28;20078;-59
2021/11/04 00:53:45;;;;;;;4.63;4.22;;;;;;;10.22;100.00;94734.56;4999396;28;20077;-52
2021/11/04 00:56:13;;;;;;;6.72;4.50;;;;;;;10.44;100.00;94730.16;4999188;28;20073;-55
2021/11/04 00:58:43;;;;;;;5.93;4.38;;;;;;;10.41;100.00;94717.34;4998058;28;20479;-52
2021/11/04 01:01:11;;;;;;;5.22;4.72;;;;;;;10.36;100.00;94727.66;4999242;28;20080;-54
2021/11/04 01:03:40;;;;;;;5.18;4.68;;;;;;;10.47;100.00;94723.72;4999601;28;20069;-51
2021/11/04 01:06:08;;;;;;;5.88;4.68;;;;;;;10.39;100.00;94721.19;5004154;28;20103;-55
2021/11/04 01:08:38;;;;;;;5.18;4.68;;;;;;;9.96;100.00;94726.31;4997443;28;20080;-53
2021/11/04 01:11:07;;;;;;;6.43;4.47;;;;;;;9.94;100.00;94729.16;5003756;28;20070;-54
2021/11/04 01:13:41;;;;;;;5.00;4.50;;;;;;;10.02;100.00;94717.69;5005648;28;20042;-52
2021/11/04 01:16:10;;;;;;;5.10;4.65;;;;;;;9.97;100.00;94720.88;5005195;28;20463;-58
2021/11/04 01:18:39;;;;;;;5.57;5.00;;;;;;;10.00;100.00;94714.41;5004995;28;20291;-51
2021/11/04 01:21:07;;;;;;;6.00;5.40;;;;;;;10.04;100.00;94722.78;4985060;28;20078;-56
2021/11/04 01:23:36;;;;;;;6.15;5.55;;;;;;;10.16;100.00;94719.47;4985840;28;20460;-54
2021/11/04 01:26:05;;;;;;;6.18;5.57;;;;;;;10.05;100.00;94716.50;4997721;28;20512;-54
2021/11/04 01:28:34;;;;;;;7.50;6.43;;;;;;;10.15;100.00;94715.22;4995527;28;20070;-54
2021/11/04 01:31:03;;;;;;;7.32;5.82;;;;;;;9.82;100.00;94711.38;4988696;28;20073;-53
2021/11/04 01:33:33;;;;;;;7.93;6.53;;;;;;;9.85;100.00;94711.81;4990675;28;20587;-55
2021/11/04 01:36:02;;;;;;;8.00;7.05;;;;;;;10.11;100.00;94708.66;4984628;28;20689;-58
2021/11/04 01:38:30;;;;;;;7.68;6.88;;;;;;;9.64;100.00;94709.91;4998317;28;20074;-57
2021/11/04 01:40:58;;;;;;;8.63;7.15;;;;;;;9.75;100.00;94717.34;5002537;28;20380;-55
2021/11/04 01:43:28;;;;;;;7.90;7.10;;;;;;;9.83;100.00;94708.53;4997263;28;20093;-55
2021/11/04 01:45:56;;;;;;;7.55;6.70;;;;;;;9.72;100.00;94706.38;4989477;28;20539;-52
2021/11/04 01:48:25;;;;;;;7.65;6.07;;;;;;;9.66;100.00;94691.31;4989338;28;20587;-56
2021/11/04 01:50:55;;;;;;;6.60;5.90;;;;;;;9.52;100.00;94685.06;5002679;28;20061;-54
2021/11/04 01:53:24;;;;;;;7.28;5.93;;;;;;;9.48;100.00;94674.06;5004852;28;20500;-55
2021/11/04 01:55:52;;;;;;;6.15;4.93;;;;;;;9.42;100.00;94668.72;5004950;28;20076;-56
2021/11/04 01:58:21;;;;;;;4.63;4.07;;;;;;;9.18;100.00;94678.50;5003681;28;20069;-55
2021/11/04 02:00:49;;;;;;;4.38;3.92;;;;;;;8.99;100.00;94684.28;5004388;28;20745;-55
2021/11/04 02:03:25;;;;;;;5.78;3.90;;;;;;;9.16;100.00;94679.69;5007025;28;20547;-57
2021/11/04 02:05:59;;;;;;;3.88;3.58;;;;;;;8.93;100.00;94687.63;5003621;28;20076;-53
2021/11/04 02:08:32;;;;;;;4.35;3.78;;;;;;;8.85;100.00;94695.59;5006819;28;20069;-53
2021/11/04 02:11:07;;;;;;;4.68;4.10;;;;;;;8.92;100.00;94723.59;5003569;28;20089;-53
2021/11/04 02:13:41;;;;;;;6.13;4.00;;;;;;;9.08;100.00;94706.03;4996533;28;20065;-57
2021/11/04 02:16:09;;;;;;;4.85;4.35;;;;;;;8.99;100.00;94698.25;5003173;28;20084;-54
2021/11/04 02:18:38;;;;;;;4.72;3.88;;;;;;;8.56;100.00;94699.72;5001830;28;20069;-52
2021/11/04 02:21:12;;;;;;;4.43;4.03;;;;;;;8.94;100.00;94711.09;5005666;28;20081;-55
2021/11/04 02:23:53;;;;;;;4.93;3.75;;;;;;;8.24;100.00;94713.88;5000344;28;20062;-54
2021/11/04 02:26:23;;;;;;;4.00;3.60;;;;;;;8.49;100.00;94690.94;5003118;28;20065;-51
2021/11/04 02:28:53;;;;;;;4.25;3.55;;;;;;;8.29;100.00;94688.75;4996850;28;20062;-56
2021/11/04 02:31:23;;;;;;;3.85;3.55;;;;;;;8.62;100.00;94680.66;5006827;28;20085;-55
2021/11/04 02:33:52;;;;;;;6.35;3.65;;;;;;;8.62;100.00;94667.50;5003774;28;20034;-54
2021/11/04 02:36:23;;;;;;;4.45;4.05;;;;;;;8.53;100.00;94655.44;5003036;28;20104;-54
2021/11/04 02:38:52;;;;;;;4.93;4.18;;;;;;;8.55;100.00;94669.22;4995301;28;20069;-56
2021/11/04 02:41:21;;;;;;;6.38;4.10;;;;;;;8.51;100.00;94670.56;5001723;28;20066;-51
2021/11/04 02:44:15;;;;;;;4.47;4.07;;;;;;;8.20;100.00;94660.91;5004213;28;20076;-56
2021/11/04 02:46:44;;;;;;;6.90;3.90;;;;;;;8.26;100.00;94657.59;5007151;28;20062;-55
2021/11/04 02:49:12;;;;;;;6.03;4.20;;;;;;;8.34;100.00;94651.44;5004127;28;20542;-56
2021/11/04 02:51:41;;;;;;;6.25;4.28;;;;;;;8.19;100.00;94651.41;4997661;28;20065;-55
2021/11/04 02:54:10;;;;;;;3.25;2.92;;;;;;;7.94;100.00;94653.34;4999007;28;20091;-52
2021/11/04 02:56:43;;;;;;;4.18;3.67;;;;;;;7.98;100.00;94661.69;5024069;28;20065;-55
2021/11/04 02:59:15;;;;;;;4.38;3.97;;;;;;;8.04;100.00;94676.75;5001763;28;20077;-56
2021/11/04 03:01:45;;;;;;;4.50;4.10;;;;;;;8.21;100.00;94682.72;5003626;28;20073;-56
2021/11/04 03:04:16;;;;;;;4.35;3.92;;;;;;;7.96;100.00;94672.38;5003870;28;20161;-57
2021/11/04 03:06:45;;;;;;;3.83;3.50;;;;;;;7.90;100.00;94670.41;5003245;28;20069;-58
2021/11/04 03:09:14;;;;;;;4.65;3.30;;;;;;;7.83;100.00;94654.53;4998698;28;20069;-58
2021/11/04 03:11:43;;;;;;;3.58;3.28;;;;;;;7.58;100.00;94658.28;5002754;28;20157;-54
2021/11/04 03:14:12;;;;;;;3.50;3.20;;;;;;;7.69;100.00;94657.09;5001472;28;20072;-53
2021/11/04 03:16:45;;;;;;;3.83;3.28;;;;;;;7.61;100.00;94658.75;5000876;28;20077;-55
2021/11/04 03:19:16;;;;;;;3.60;3.30;;;;;;;7.82;100.00;94662.59;5000510;28;20073;-53
2021/11/04 03:21:47;;;;;;;3.13;2.90;;;;;;;7.48;100.00;94655.84;5003020;28;20444;-57
2021/11/04 03:24:18;;;;;;;2.97;2.78;;;;;;;7.45;100.00;94650.94;5001295;28;20073;-56
2021/11/04 03:26:48;;;;;;;4.53;3.47;;;;;;;7.74;100.00;94639.00;5000162;28;20520;-58
2021/11/04 03:29:18;;;;;;;3.65;3.33;;;;;;;7.45;100.00;94645.72;4989055;28;20038;-55
2021/11/04 03:31:49;;;;;;;3.47;3.17;;;;;;;7.52;100.00;94662.41;4981977;28;20068;-54
2021/11/04 03:34:17;;;;;;;;;;;;;;;7.66;100.00;94660.03;4982001;28;20064;-52
2021/11/04 03:36:49;;;;;;;3.00;2.80;;;;;;;7.41;100.00;94646.22;4997421;28;19960;-52
2021/11/04 03:39:18;;;;;;;2.75;2.55;;;;;;;7.46;100.00;94649.13;4984194;28;20079;-53
2021/11/04 03:41:49;;;;;;;3.20;3.00;;;;;;;7.45;100.00;94652.75;4977779;28;20070;-56
2021/11/04 03:44:19;;;;;;;3.70;2.85;;;;;;;7.23;100.00;94662.19;4990074;28;20077;-54
2021/11/04 03:46:50;;;;;;;2.90;2.70;;;;;;;7.29;100.00;94672.78;4989450;28;20070;-53
2021/11/04 03:49:20;;;;;;;3.00;2.80;;;;;;;7.35;100.00;94697.53;4986315;28;20065;-55
2021/11/04 03:51:50;;;;;;;3.20;3.00;;;;;;;7.48;100.00;94712.75;4997948;28;20511;-53
2021/11/04 03:54:21;;;;;;;2.95;2.65;;;;;;;7.49;100.00;94737.97;5003762;28;20688;-56
2021/11/04 03:56:51;;;;;;;3.30;3.00;;;;;;;7.51;100.00;94733.38;5000267;28;20065;-56
2021/11/04 03:59:19;;;;;;;3.30;3.10;;;;;;;7.54;100.00;94735.69;4999406;28;20070;-52
2021/11/04 04:01:50;;;;;;;3.67;2.75;;;;;;;7.51;100.00;94728.13;5004129;28;20058;-55
2021/11/04 04:04:19;;;;;;;3.03;2.83;;;;;;;7.36;100.00;94743.72;4998161;28;20425;-56
2021/11/04 04:06:51;;;;;;;2.63;2.53;;;;;;;7.38;100.00;94739.97;4984378;28;20093;-56
2021/11/04 04:09:20;;;;;;;3.20;2.90;;;;;;;7.37;100.00;94730.47;4981557;28;20086;-53
2021/11/04 04:11:49;;;;;;;2.90;2.70;;;;;;;7.42;100.00;94729.13;4998361;28;20507;-55
2021/11/04 04:14:18;;;;;;;2.95;2.75;;;;;;;7.26;100.00;94729.97;4995408;28;20534;-59
2021/11/04 04:16:47;;;;;;;2.60;2.40;;;;;;;7.31;100.00;94740.81;5006812;28;20448;-55
2021/11/04 04:19:17;;;;;;;2.60;2.40;;;;;;;7.42;100.00;94735.19;4984562;28;20065;-57
2021/11/04 04:21:45;;;;;;;3.50;2.90;;;;;;;7.31;100.00;94741.63;4999157;28;20511;-50
2021/11/04 04:24:14;;;;;;;2.70;2.50;;;;;;;7.32;100.00;94730.13;5006974;28;20112;-56
2021/11/04 04:26:43;;;;;;;2.95;2.65;;;;;;;7.28;100.00;94714.91;5004233;28;20073;-53
2021/11/04 04:29:11;;;;;;;2.88;2.58;;;;;;;7.31;100.00;94723.25;4999845;28;20440;-56
2021/11/04 04:31:42;;;;;;;2.70;2.50;;;;;;;7.21;100.00;94729.69;5000003;28;20433;-53
2021/11/04 04:34:10;;;;;;;;;;;;;;;7.17;100.00;94725.75;4999005;28;20058;-54
2021/11/04 04:36:40;;;;;;;2.88;2.67;;;;;;;7.17;100.00;94731.81;5002848;28;19949;-53
2021/11/04 04:39:09;;;;;;;2.72;2.53;;;;;;;7.16;100.00;94724.94;5001282;28;20069;-53
2021/11/04 04:41:37;;;;;;;3.20;2.85;;;;;;;7.19;100.00;94724.63;5000763;28;20465;-54
2021/11/04 04:44:06;;;;;;;3.55;3.25;;;;;;;7.34;100.00;94733.41;5000397;28;20476;-55
2021/11/04 04:46:35;;;;;;;3.20;3.00;;;;;;;7.22;100.00;94747.84;5005130;28;20077;-58
2021/11/04 04:49:03;;;;;;;3.50;3.20;;;;;;;7.37;100.00;94761.94;5004029;28;20069;-53
2021/11/04 04:51:32;;;;;;;3.47;3.17;;;;;;;7.22;100.00;94760.94;5007544;28;20089;-57
2021/11/04 04:54:02;;;;;;;6.00;3.35;;;;;;;7.33;100.00;94771.13;5006333;28;20538;-54
2021/11/04 04:56:31;;;;;;;3.58;3.28;;;;;;;7.46;100.00;94777.63;5008826;28;20073;-58
2021/11/04 04:59:00;;;;;;;3.60;3.30;;;;;;;7.53;100.00;94775.97;5009814;28;20073;-54
2021/11/04 05:01:29;;;;;;;3.53;3.22;;;;;;;7.18;100.00;94774.56;5005978;28;20065;-55
2021/11/04 05:03:57;;;;;;;8.88;3.40;;;;;;;7.41;100.00;94762.41;5003789;28;20068;-55
2021/11/04 05:06:26;;;;;;;3.28;2.92;;;;;;;7.22;100.00;94754.91;5011385;28;20664;-54
2021/11/04 05:08:55;;;;;;;3.17;2.90;;;;;;;7.29;100.00;94750.63;5008888;28;20058;-55
2021/11/04 05:11:24;;;;;;;3.10;2.90;;;;;;;7.24;100.00;94755.56;5004699;28;20111;-56
2021/11/04 05:13:53;;;;;;;3.28;3.00;;;;;;;7.36;100.00;94765.53;5008006;28;20077;-53
2021/11/04 05:16:21;;;;;;;3.17;2.97;;;;;;;7.05;100.00;94759.31;5007745;28;20073;-56
2021/11/04 05:18:50;;;;;;;3.53;3.22;;;;;;;7.30;100.00;94760.16;5007822;28;20461;-56
2021/11/04 05:21:18;;;;;;;3.40;3.10;;;;;;;7.32;100.00;94777.31;5010510;28;20069;-55
2021/11/04 05:23:47;;;;;;;3.22;2.80;;;;;;;7.06;100.00;94750.50;4999357;28;20038;-52
2021/11/04 05:26:15;;;;;;;3.00;2.80;;;;;;;7.30;100.00;94750.47;5001668;28;20637;-57
2021/11/04 05:28:45;;;;;;;2.88;2.67;;;;;;;7.21;100.00;94753.25;5004924;28;20081;-58
2021/11/04 05:31:14;;;;;;;2.80;2.60;;;;;;;7.13;100.00;94785.56;4993716;28;20077;-56
2021/11/04 05:33:42;;;;;;;3.55;3.25;;;;;;;7.27;100.00;94784.88;4982726;28;20743;-54
2021/11/04 05:36:11;;;;;;;2.85;2.65;;;;;;;7.10;100.00;94793.75;4987946;28;20558;-57
2021/11/04 05:38:39;;;;;;;2.95;2.75;;;;;;;7.28;100.00;94796.19;4981894;28;20338;-52
2021/11/04 05:41:08;;;;;;;3.13;2.92;;;;;;;7.08;100.00;94800.94;4983322;28;20074;-54
2021/11/04 05:43:36;;;;;;;3.65;3.28;;;;;;;7.43;100.00;94810.25;4994780;28;20731;-55
2021/11/04 05:46:06;;;;;;;2.80;2.60;;;;;;;7.09;100.00;94824.38;5030653;28;20085;-55
2021/11/04 05:48:36;;;;;;;3.47;3.20;;;;;;;7.34;100.00;94819.94;5005658;28;20084;-54
2021/11/04 05:51:04;;;;;;;3.60;3.30;;;;;;;7.45;100.00;94825.84;5004755;28;20069;-56
2021/11/04 05:53:33;;;;;;;3.30;3.10;;;;;;;7.40;100.00;94830.75;5007318;28;20080;-57
2021/11/04 05:56:02;;;;;;;4.40;3.40;;;;;;;7.51;100.00;94830.41;5008880;28;20547;-56
2021/11/04 05:58:30;;;;;;;3.58;3.38;;;;;;;7.56;100.00;94839.41;4996737;28;20074;-54
2021/11/04 06:00:59;;;;;;;3.95;3.20;;;;;;;7.31;100.00;94841.25;5004883;28;20070;-58
2021/11/04 06:03:29;;;;;;;4.18;3.55;;;;;;;7.57;100.00;94842.84;5010787;28;20100;-54
2021/11/04 06:05:57;;;;;;;4.43;3.10;;;;;;;7.47;100.00;94848.28;5000161;28;20546;-60
2021/11/04 06:08:25;;;;;;;3.47;3.13;;;;;;;7.47;100.00;94847.47;5008848;28;20073;-57
2021/11/04 06:10:54;;;;;;;2.50;2.40;;;;;;;7.27;100.00;94858.28;4986590;28;20080;-52
2021/11/04 06:13:22;;;;;;;2.70;2.50;;;;;;;7.20;100.00;94853.88;4989149;28;20073;-52
2021/11/04 06:15:51;;;;;;;3.10;2.80;;;;;;;7.45;100.00;94857.31;5008129;28;20081;-51
2021/11/04 06:18:19;;;;;;;2.95;2.75;;;;;;;7.33;100.00;94865.50;5012941;28;20536;-55
2021/11/04 06:20:49;;;;;;;3.00;2.80;;;;;;;7.51;100.00;94870.56;5002804;28;20084;-53
2021/11/04 06:23:18;;;;;;;3.10;2.90;;;;;;;7.27;100.00;94874.03;4988081;28;20071;-53
2021/11/04 06:25:46;;;;;;;2.92;2.72;;;;;;;7.12;100.00;94880.88;4982626;28;20528;-50
2021/11/04 06:28:15;;;;;;;2.80;2.60;;;;;;;7.24;100.00;94890.06;4982406;28;20074;-56
2021/11/04 06:30:43;;;;;;;2.80;2.60;;;;;;;7.37;100.00;94886.97;4982055;28;20061;-55
2021/11/04 06:33:12;;;;;;;2.70;2.50;;;;;;;7.00;100.00;94882.19;5005459;28;20077;-56
2021/11/04 06:35:40;;;;;;;2.45;2.35;;;;;;;6.89;100.00;94876.25;5016375;28;20149;-52
2021/11/04 06:38:10;;;;;;;2.70;2.50;;;;;;;7.02;100.00;94883.66;5001534;28;20057;-54
2021/11/04 06:40:39;;;;;;;2.40;2.30;;;;;;;6.73;100.00;94891.94;5008300;28;20077;-52
2021/11/04 06:43:08;;;;;;;2.30;2.20;;;;;;;6.58;100.00;94883.88;4997000;28;20473;-56
2021/11/04 06:45:37;;;;;;;2.30;2.20;;;;;;;6.66;100.00;94896.19;4986935;28;20124;-55
2021/11/04 06:48:08;;;;;;;2.50;2.40;;;;;;;6.65;100.00;94907.63;4988603;28;20214;-54
2021/11/04 06:50:37;;;;;;;2.50;2.40;;;;;;;6.81;100.00;94909.47;4992378;28;20159;-55
2021/11/04 06:53:07;;;;;;;2.50;2.40;;;;;;;6.87;100.00;94916.69;5003691;28;20077;-54
2021/11/04 06:55:39;;;;;;;2.75;2.55;;;;;;;6.60;100.00;94912.53;4998513;28;20089;-57
2021/11/04 06:58:14;;;;;;;2.55;2.42;;;;;;;7.06;100.00;94918.22;5006634;28;20072;-56
2021/11/04 07:00:45;;;;;;;2.80;2.60;;;;;;;7.08;100.00;94913.63;4996986;28;20702;-56
2021/11/04 07:03:20;;;;;;;2.80;2.60;;;;;;;7.13;100.00;94924.47;4999504;28;20477;-49
2021/11/04 07:05:54;;;;;;;2.63;2.42;;;;;;;6.93;100.00;94942.28;5008401;28;20081;-56
2021/11/04 07:08:24;;;;;;;3.03;2.83;;;;;;;7.16;100.00;94936.41;4989957;28;20069;-54
2021/11/04 07:10:59;;;;;;;3.10;2.90;;;;;;;6.77;100.00;94944.84;4992255;28;20473;-57
2021/11/04 07:13:30;;;;;;;2.97;2.78;;;;;;;7.07;100.00;94946.06;5005029;28;20069;-55
2021/11/04 07:16:00;;;;;;;2.90;2.70;;;;;;;7.18;100.00;94958.06;5004844;28;20065;-57
2021/11/04 07:18:29;;;;;;;3.17;2.90;;;;;;;6.97;100.00;94943.59;5001261;28;20090;-50
2021/11/04 07:21:04;;;;;;;3.08;2.88;;;;;;;7.16;100.00;94963.47;5003969;28;20077;-55
2021/11/04 07:23:38;;;;;;;3.10;2.90;;;;;;;7.11;100.00;94971.78;5007176;28;20073;-52
2021/11/04 07:26:09;;;;;;;3.20;3.00;;;;;;;7.02;100.00;94979.78;5004385;28;20501;-55
2021/11/04 07:28:39;;;;;;;2.45;2.35;;;;;;;6.66;100.00;94977.38;5007490;28;20536;-57
2021/11/04 07:31:10;;;;;;;3.00;2.80;;;;;;;6.93;100.00;94989.44;5002714;28;20066;-56
2021/11/04 07:33:42;;;;;;;4.22;2.78;;;;;;;6.80;100.00;94989.06;5000954;28;20074;-58
2021/11/04 07:36:15;;;;;;;2.60;2.50;;;;;;;6.88;100.00;94999.56;5009645;28;20092;-57
2021/11/04 07:38:45;;;;;;;2.40;2.30;;;;;;;6.70;100.00;94988.34;5006233;28;20062;-55
2021/11/04 07:41:15;;;;;;;2.50;2.40;;;;;;;7.03;100.00;95000.63;5006984;28;20073;-57
2021/11/04 07:43:44;;;;;;;2.50;2.40;;;;;;;6.93;100.00;94994.69;4998937;28;20528;-57
2021/11/04 07:46:12;;;;;;;2.70;2.50;;;;;;;7.28;100.00;95004.13;5007525;28;20516;-58
2021/11/04 07:48:42;;;;;;;2.40;2.30;;;;;;;7.21;100.00;94994.44;5000622;28;20092;-56
2021/11/04 07:51:10;;;;;;;2.27;2.17;;;;;;;6.86;100.00;95002.34;5009547;28;20593;-56
2021/11/04 07:53:40;;;;;;;2.28;2.17;;;;;;;7.11;100.00;94998.00;5006279;28;20923;-57
2021/11/04 07:56:09;;;;;;;2.42;2.22;;;;;;;6.97;100.00;95013.53;5001483;28;20077;-54
2021/11/04 07:58:40;;;;;;;2.78;2.58;;;;;;;7.07;100.00;95009.78;5005547;28;20077;-53
2021/11/04 08:01:08;;;;;;;2.50;2.40;;;;;;;7.05;100.00;95016.16;4987887;28;20173;-54
2021/11/04 08:03:37;;;;;;;2.20;2.10;;;;;;;7.06;100.00;95012.59;5002737;28;20539;-53
2021/11/04 08:06:05;;;;;;;2.90;2.70;;;;;;;7.30;100.00;95033.63;5002857;28;20240;-51
2021/11/04 08:08:35;;;;;;;2.30;2.20;;;;;;;7.10;100.00;95025.19;5008471;28;20084;-55
2021/11/04 08:11:04;;;;;;;2.40;2.30;;;;;;;7.12;100.00;95031.13;5013077;28;20092;-53
2021/11/04 08:13:32;;;;;;;2.20;2.10;;;;;;;7.14;100.00;95049.28;5004795;28;20065;-57
2021/11/04 08:16:02;;;;;;;2.30;2.20;;;;;;;7.23;100.00;95050.16;5000377;28;20065;-57
2021/11/04 08:18:31;;;;;;;2.60;2.40;;;;;;;7.00;100.00;95050.72;5002759;28;20078;-54
2021/11/04 08:20:59;;;;;;;2.72;2.53;;;;;;;7.34;100.00;95063.78;5001791;28;20073;-57
2021/11/04 08:23:27;;;;;;;2.80;2.60;;;;;;;7.22;100.00;95064.22;5007296;28;20077;-55
2021/11/04 08:25:56;;;;;;;2.40;2.30;;;;;;;7.04;100.00;95061.72;5004421;28;20077;-50
2021/11/04 08:28:24;;;;;;;2.78;2.58;;;;;;;7.16;100.00;95070.09;5007451;28;20062;-57
2021/11/04 08:30:53;;;;;;;2.80;2.60;;;;;;;7.25;100.00;95069.97;5008444;28;20124;-53
2021/11/04 08:33:23;;;;;;;2.72;2.53;;;;;;;7.27;100.00;95075.91;5012668;28;20091;-56
2021/11/04 08:35:51;;;;;;;2.63;2.42;;;;;;;7.05;100.00;95069.41;5005811;28;20042;-57
2021/11/04 08:38:20;;;;;;;2.75;2.55;;;;;;;7.44;100.00;95074.16;4996746;28;20073;-56
2021/11/04 08:40:48;;;;;;;2.55;2.40;;;;;;;7.28;100.00;95088.00;4997682;28;20066;-55
2021/11/04 08:43:17;;;;;;;2.75;2.55;;;;;;;7.71;100.00;95088.81;5006233;28;20077;-55
2021/11/04 08:45:46;;;;;;;2.72;2.53;;;;;;;7.70;100.00;95094.22;5002247;28;20477;-58
2021/11/04 08:48:17;;;;;;;2.72;2.53;;;;;;;7.71;100.00;95101.09;4986500;28;20085;-55
2021/11/04 08:50:47;;;;;;;2.60;2.40;;;;;;;7.47;100.00;95102.69;4984004;28;20067;-60
2021/11/04 08:53:18;;;;;;;2.30;2.20;;;;;;;7.75;100.00;95118.19;5003817;28;20080;-51
2021/11/04 08:55:46;;;;;;;3.58;2.65;;;;;;;7.78;100.00;95117.88;5000439;28;20791;-57
2021/11/04 08:58:15;;;;;;;2.50;2.40;;;;;;;7.49;100.00;95128.75;4989543;28;20077;-53
2021/11/04 09:00:43;;;;;;;2.83;2.63;;;;;;;7.72;100.00;95131.63;4998832;28;20093;-51
2021/11/04 09:03:12;;;;;;;2.60;2.40;;;;;;;7.63;100.00;95130.75;4997513;28;20082;-55
2021/11/04 09:05:43;;;;;;;2.78;2.58;;;;;;;7.42;100.00;95139.03;4992152;28;20532;-55
2021/11/04 09:08:13;;;;;;;2.60;2.40;;;;;;;7.36;100.00;95143.13;4996762;28;20046;-53
2021/11/04 09:10:42;;;;;;;3.10;2.90;;;;;;;7.78;100.00;95144.91;5003277;28;20082;-56
2021/11/04 09:13:10;;;;;;;2.60;2.40;;;;;;;7.50;100.00;95144.34;5004540;28;20062;-55
2021/11/04 09:15:39;;;;;;;2.30;2.20;;;;;;;7.47;100.00;95155.13;4996852;28;20082;-54
2021/11/04 09:18:08;;;;;;;2.90;2.70;;;;;;;7.38;100.00;95138.53;5008816;28;20082;-57
2021/11/04 09:20:37;;;;;;;2.85;2.65;;;;;;;7.74;100.00;95154.09;4992558;28;20074;-55
2021/11/04 09:23:05;;;;;;;3.28;2.72;;;;;;;7.70;100.00;95163.25;4977718;28;20062;-53
2021/11/04 09:25:36;;;;;;;3.10;2.90;;;;;;;7.93;100.00;95162.66;4979027;28;20076;-56
2021/11/04 09:28:04;;;;;;;2.50;2.38;;;;;;;7.48;100.00;95172.50;4996840;28;20069;-57
2021/11/04 09:30:33;;;;;;;2.78;2.58;;;;;;;7.42;100.00;95172.31;5012207;28;20128;-53
2021/11/04 09:33:02;;;;;;;2.80;2.60;;;;;;;7.82;100.00;95180.34;4988489;28;20313;-55
2021/11/04 09:35:30;;;;;;;2.70;2.50;;;;;;;7.88;100.00;95192.03;5005743;28;20073;-55
2021/11/04 09:37:59;;;;;;;2.75;2.55;;;;;;;7.87;100.00;95192.97;4991549;28;20066;-53
2021/11/04 09:40:28;;;;;;;3.80;2.40;;;;;;;7.90;100.00;95205.78;4981839;28;20067;-57
2021/11/04 09:42:57;;;;;;;2.72;2.53;;;;;;;7.75;100.00;95202.16;4989342;28;20065;-54
2021/11/04 09:45:27;;;;;;;2.80;2.60;;;;;;;8.35;100.00;95209.84;5011626;28;20128;-54
2021/11/04 09:47:56;;;;;;;2.83;2.63;;;;;;;8.54;100.00;95209.59;4994546;28;20076;-55
2021/11/04 09:50:24;;;;;;;2.40;2.30;;;;;;;8.44;100.00;95213.34;4993954;28;20092;-57
2021/11/04 09:52:55;;;;;;;2.38;2.28;;;;;;;8.07;100.00;95204.03;5004440;28;20081;-55
2021/11/04 09:55:26;;;;;;;2.22;2.13;;;;;;;8.19;100.00;95217.69;4995856;28;20062;-56
2021/11/04 09:57:56;;;;;;;;;;;;;;;8.71;100.00;95215.69;4986987;28;20084;-57
2021/11/04 10:00:35;;;;;;;2.55;2.35;;;;;;;8.24;100.00;95213.59;5006464;28;19968;-50
2021/11/04 10:03:06;;;;;;;2.40;2.30;;;;;;;8.82;100.00;95222.41;5014960;28;20139;-55
2021/11/04 10:05:43;;;;;;;2.63;2.42;;;;;;;9.18;100.00;95222.06;4986803;28;20513;-54
2021/11/04 10:08:14;;;;;;;2.55;2.35;;;;;;;8.79;100.00;95222.75;4997187;28;20668;-57
2021/11/04 10:10:43;;;;;;;2.10;2.00;;;;;;;8.65;100.00;95218.94;5002002;28;20066;-56
2021/11/04 10:13:13;;;;;;;2.60;2.40;;;;;;;8.60;100.00;95225.66;4998422;28;20065;-55
2021/11/04 10:15:43;;;;;;;2.30;2.20;;;;;;;8.69;100.00;95219.44;5002736;28;20089;-55
2021/11/04 10:18:20;;;;;;;2.50;2.30;;;;;;;8.57;100.00;95226.84;5006571;28;20073;-54
2021/11/04 10:20:57;;;;;;;2.67;2.47;;;;;;;9.03;100.00;95228.00;5009180;28;20486;-55
2021/11/04 10:23:26;;;;;;;2.70;2.50;;;;;;;9.00;100.00;95236.19;5003848;28;20262;-58
2021/11/04 10:26:06;;;;;;;2.70;2.50;;;;;;;9.44;100.00;95222.66;5004307;28;20077;-56
2021/11/04 10:28:36;;;;;;;2.60;2.40;;;;;;;9.19;100.00;95219.28;5003527;28;20066;-54
2021/11/04 10:31:07;;;;;;;2.60;2.40;;;;;;;8.84;100.00;95216.97;5034049;28;20049;-56
2021/11/04 10:33:37;;;;;;;2.58;2.38;;;;;;;9.19;100.00;95224.53;4997821;28;20077;-55
2021/11/04 10:36:08;;;;;;;2.38;2.20;;;;;;;9.20;100.00;95239.31;5005729;28;20440;-57
2021/11/04 10:38:40;;;;;;;2.40;2.30;;;;;;;9.08;100.00;95232.75;5006719;28;20440;-58
2021/11/04 10:41:12;;;;;;;2.40;2.20;;;;;;;9.01;100.00;95229.13;4998018;28;20066;-57
2021/11/04 10:43:40;;;;;;;2.40;2.22;;;;;;;9.52;100.00;95227.09;5006436;28;20062;-52
2021/11/04 10:46:15;;;;;;;2.80;2.60;;;;;;;9.20;100.00;95238.50;5004058;28;20543;-52
2021/11/04 10:48:45;;;;;;;2.60;2.40;;;;;;;9.05;100.00;95233.09;4996108;28;20089;-58
2021/11/04 10:51:15;;;;;;;3.08;2.50;;;;;;;9.22;100.00;95245.25;5010576;28;20207;-58
2021/11/04 10:53:44;;;;;;;2.60;2.40;;;;;;;9.46;100.00;95233.88;4994768;28;20065;-52
2021/11/04 10:56:18;;;;;;;3.10;2.53;;;;;;;9.14;100.00;95242.59;5002626;28;20066;-53
2021/11/04 10:58:55;;;;;;;2.70;2.50;;;;;;;9.20;100.00;95247.22;5011995;28;20168;-58
2021/11/04 11:01:37;;;;;;;2.60;2.40;;;;;;;8.85;100.00;95248.38;5005213;28;20061;-58
2021/11/04 11:04:08;;;;;;;2.90;2.70;;;;;;;8.76;100.00;95255.41;4997117;28;20069;-53
2021/11/04 11:06:41;;;;;;;2.78;2.58;;;;;;;8.67;100.00;95261.66;4995803;28;20085;-55
2021/11/04 11:09:13;;;;;;;3.15;2.85;;;;;;;9.33;100.00;95251.97;5003280;28;20093;-55
2021/11/04 11:11:44;;;;;;;3.10;2.80;;;;;;;9.49;100.00;95240.56;4984277;28;20070;-56
2021/11/04 11:14:13;;;;;;;3.00;2.80;;;;;;;9.28;100.00;95259.53;4997670;28;20073;-57
2021/11/04 11:16:47;;;;;;;2.92;2.72;;;;;;;9.79;100.00;95260.09;5005600;28;20077;-56
2021/11/04 11:19:20;;;;;;;2.42;2.22;;;;;;;9.74;100.00;95254.53;4989830;28;20077;-55
2021/11/04 11:21:51;;;;;;;2.88;2.67;;;;;;;9.60;100.00;95248.13;4990073;28;20085;-51
2021/11/04 11:24:26;;;;;;;2.97;2.78;;;;;;;9.85;100.00;95261.22;4988355;28;20500;-55
2021/11/04 11:26:54;;;;;;;2.92;2.72;;;;;;;9.58;100.00;95267.72;5007125;28;20070;-57
2021/11/04 11:29:24;;;;;;;2.83;2.58;;;;;;;9.57;100.00;95269.53;5006351;28;20069;-51
2021/11/04 11:31:56;;;;;;;2.72;2.53;;;;;;;9.80;100.00;95268.78;4998901;28;20069;-57
2021/11/04 11:34:26;;;;;;;2.70;2.50;;;;;;;9.55;100.00;95284.66;4993830;28;20084;-58
2021/11/04 11:37:16;;;;;;;2.90;2.70;;;;;;;9.75;100.00;95274.59;5000722;28;20078;-55
2021/11/04 11:40:10;;;;;;;3.15;2.88;;;;;;;9.66;100.00;95291.38;4999499;28;20054;-54
2021/11/04 11:42:55;;;;;;;3.30;3.00;;;;;;;9.59;100.00;95285.94;5005866;28;20077;-53
2021/11/04 11:45:23;;;;;;;2.83;2.50;;;;;;;9.49;100.00;95272.16;4991349;28;20053;-56
2021/11/04 11:47:54;;;;;;;2.83;2.63;;;;;;;9.68;100.00;95298.13;4994767;28;20069;-57